Time;durP1;ratioP1;P1;durP2;ratioP2;P2;SDS_P1;SDS_P2;PMS_P1;PMS_P2;Temp;Humidity;BMP_temperature;BMP_pressure;BME280_temperature;BME280_humidity;BME280_pressure;Samples;Min_cycle;Max_cycle;Signal;HPM_P1;HPM_P2
2022/02/03 00:01:50;;;;;;;59.23;55.53;;;;;;;10.63;100.00;102014.41;1891928;75;86424;-78
2022/02/03 00:07:24;;;;;;;60.97;57.37;;;;;;;10.56;100.00;102005.98;1918976;72;86041;-79
2022/02/03 00:25:18;;;;;;;61.13;57.23;;;;;;;10.52;100.00;101982.05;1915967;74;86446;-69
2022/02/03 00:31:09;;;;;;;61.50;57.70;;;;;;;10.57;100.00;101977.92;1972452;71;39737;-78
2022/02/03 00:37:09;;;;;;;58.80;54.87;;;;;;;10.59;100.00;101957.68;1874620;74;86225;-75
2022/02/03 00:48:57;;;;;;;61.43;57.63;;;;;;;10.56;100.00;101958.20;1841010;76;86328;-78
2022/02/03 00:54:42;;;;;;;61.73;57.67;;;;;;;10.48;100.00;101960.05;1795776;78;85225;-76
2022/02/03 01:00:30;;;;;;;62.03;58.00;;;;;;;10.51;100.00;101959.52;1918092;73;85454;-74
2022/02/03 01:06:16;;;;;;;62.10;58.10;;;;;;;10.46;100.00;101965.01;1906000;72;87090;-74
2022/02/03 01:12:10;;;;;;;65.03;60.73;;;;;;;10.51;100.00;101963.69;1984631;71;39652;-79
2022/02/03 01:18:03;;;;;;;65.57;61.40;;;;;;;10.33;100.00;101943.16;1826100;76;85212;-71
2022/02/03 01:48:19;;;;;;;67.00;62.50;;;;;;;10.23;100.00;101905.52;1981414;71;39535;-79
2022/02/03 01:53:56;;;;;;;68.33;63.60;;;;;;;10.25;100.00;101903.34;1951439;72;86011;-69
2022/02/03 01:59:46;;;;;;;66.27;62.00;;;;;;;10.32;100.00;101881.77;1808698;78;86557;-79
2022/02/03 02:08:56;;;;;;;65.20;60.80;;;;;;;10.15;100.00;101876.27;1845144;76;86621;-75
2022/02/03 02:15:26;;;;;;;61.93;57.80;;;;;;;10.29;100.00;101873.95;1833227;75;86426;-76
2022/02/03 02:39:22;;;;;;;62.93;59.10;;;;;;;10.19;100.00;101823.84;1917947;74;86335;-76
2022/02/03 02:45:10;;;;;;;62.10;58.23;;;;;;;10.10;100.00;101808.16;1978537;71;39572;-75
2022/02/03 02:51:10;;;;;;;62.93;59.00;;;;;;;10.12;100.00;101805.97;1966155;71;40577;-78
2022/02/03 02:57:15;;;;;;;63.80;59.97;;;;;;;10.15;100.00;101808.25;1846432;76;86555;-78
2022/02/03 03:33:23;;;;;;;66.03;61.63;;;;;;;10.01;100.00;101761.97;1904025;72;86267;-70
2022/02/03 03:39:05;;;;;;;67.07;62.57;;;;;;;9.98;100.00;101760.27;1946405;71;39689;-70
2022/02/03 03:44:53;;;;;;;67.13;62.53;;;;;;;9.98;100.00;101768.05;1960595;72;85287;-77
2022/02/03 03:50:41;;;;;;;67.43;62.80;;;;;;;9.94;100.00;101767.44;1904273;73;86209;-70
2022/02/03 03:56:36;;;;;;;71.60;66.93;;;;;;;10.00;100.00;101753.92;1906777;72;86820;-70
2022/02/03 04:30:36;;;;;;;65.13;60.73;;;;;;;9.91;100.00;101674.45;1848622;76;86154;-75
2022/02/03 04:52:09;;;;;;;63.33;58.93;;;;;;;9.77;100.00;101652.35;1792257;77;936916;-79
2022/02/03 05:01:18;;;;;;;63.93;59.67;;;;;;;9.79;100.00;101637.69;1891745;74;86099;-70
2022/02/03 05:07:45;;;;;;;63.57;59.10;;;;;;;9.76;100.00;101632.63;1980761;72;86359;-77
2022/02/03 05:13:45;;;;;;;67.37;62.77;;;;;;;9.75;100.00;101625.98;1907996;74;86272;-77
2022/02/03 05:26:25;;;;;;;65.00;60.30;;;;;;;9.58;100.00;101605.27;1940342;71;39548;-74
2022/02/03 06:16:07;;;;;;;61.60;57.13;;;;;;;9.02;100.00;101568.55;1815899;76;86489;-75
2022/02/03 06:21:50;;;;;;;65.80;61.70;;;;;;;8.96;100.00;101570.95;1886809;73;86280;-80
2022/02/03 06:27:38;;;;;;;63.83;59.57;;;;;;;8.93;100.00;101562.33;1902743;74;86638;-76
2022/02/03 06:33:19;;;;;;;62.40;58.27;;;;;;;8.84;100.00;101563.32;1912212;72;86633;-78
2022/02/03 06:39:04;;;;;;;65.40;60.97;;;;;;;8.80;100.00;101563.54;1987063;71;39392;-74
2022/02/03 06:44:52;;;;;;;65.80;61.33;;;;;;;8.79;100.00;101560.47;1878491;76;86314;-70
2022/02/03 06:50:41;;;;;;;67.70;63.17;;;;;;;8.74;100.00;101553.47;1844504;76;86621;-70
2022/02/03 06:56:32;;;;;;;62.30;58.30;;;;;;;8.66;100.00;101567.22;1918340;74;86265;-80
2022/02/03 07:02:09;;;;;;;66.30;61.90;;;;;;;8.78;100.00;101568.48;1979145;71;39820;-78
2022/02/03 07:07:53;;;;;;;67.80;63.33;;;;;;;8.63;100.00;101569.13;1819816;76;86474;-71
2022/02/03 07:13:37;;;;;;;65.37;61.13;;;;;;;8.53;100.00;101575.88;1884468;74;86622;-79
2022/02/03 07:19:23;;;;;;;64.77;60.40;;;;;;;8.63;100.00;101576.05;1916042;73;85266;-73
2022/02/03 07:25:09;;;;;;;65.33;61.03;;;;;;;8.75;100.00;101577.31;1981568;71;39561;-79
2022/02/03 07:30:55;;;;;;;64.07;59.90;;;;;;;8.73;100.00;101580.06;1891544;74;85456;-75
2022/02/03 07:36:39;;;;;;;62.30;58.07;;;;;;;8.84;100.00;101579.09;1881585;73;86531;-79
2022/02/03 07:42:25;;;;;;;64.30;59.93;;;;;;;9.00;100.00;101581.81;1909651;72;86641;-68
2022/02/03 07:48:09;;;;;;;63.13;59.13;;;;;;;8.93;100.00;101578.95;1985102;71;39594;-78
2022/02/03 07:53:53;;;;;;;65.23;60.93;;;;;;;9.02;100.00;101577.41;1832491;75;85501;-76
2022/02/03 07:59:37;;;;;;;65.60;61.07;;;;;;;9.01;100.00;101572.95;1909998;73;86319;-72
2022/02/03 08:05:21;;;;;;;66.37;62.07;;;;;;;8.96;100.00;101563.19;1914434;72;86589;-69
2022/02/03 08:11:10;;;;;;;66.23;62.03;;;;;;;9.02;100.00;101542.77;1983511;71;39499;-73
2022/02/03 08:17:00;;;;;;;65.50;61.30;;;;;;;9.35;100.00;101546.77;1839062;75;86559;-71
2022/02/03 08:22:46;;;;;;;65.47;61.30;;;;;;;9.20;100.00;101539.64;1906239;73;86676;-67
2022/02/03 08:28:52;;;;;;;66.07;61.87;;;;;;;9.05;100.00;101537.55;1908160;73;86700;-67
2022/02/03 08:34:34;;;;;;;68.03;63.57;;;;;;;8.97;100.00;101542.16;1906357;74;85749;-72
2022/02/03 08:40:15;;;;;;;65.93;61.63;;;;;;;9.07;100.00;101543.66;1986185;71;40267;-71
2022/02/03 08:46:01;;;;;;;64.97;60.57;;;;;;;9.04;100.00;101549.72;1794592;78;86678;-67
2022/02/03 08:51:47;;;;;;;64.67;60.47;;;;;;;9.08;100.00;101556.97;1886097;74;86829;-68
2022/02/03 08:57:42;;;;;;;66.07;61.67;;;;;;;9.08;100.00;101552.81;1876461;74;86362;-71
2022/02/03 09:40:07;;;;;;;60.80;56.60;;;;;;;9.54;100.00;101525.08;1878302;75;86536;-68
2022/02/03 09:58:10;;;;;;;65.43;61.07;;;;;;;10.02;100.00;101511.61;1800611;78;86811;-73
2022/02/03 10:04:02;;;;;;;63.57;59.57;;;;;;;10.01;100.00;101512.16;1840460;76;86284;-68
2022/02/03 10:09:41;;;;;;;61.27;57.27;;;;;;;10.13;100.00;101499.50;1882590;73;86686;-75
2022/02/03 10:15:26;;;;;;;61.93;57.53;;;;;;;10.12;100.00;101498.37;1909818;74;86611;-70
2022/02/03 10:21:15;;;;;;;57.67;53.97;;;;;;;10.09;100.00;101500.30;1975373;71;40450;-76
2022/02/03 10:27:27;;;;;;;58.43;54.73;;;;;;;10.24;100.00;101497.10;1984948;71;40298;-72
2022/02/03 10:33:36;;;;;;;57.97;54.17;;;;;;;10.35;100.00;101496.64;1907705;73;86493;-79
2022/02/03 10:46:24;;;;;;;55.70;52.20;;;;;;;10.66;100.00;101487.34;1845312;76;86620;-70
2022/02/03 10:52:30;;;;;;;56.00;52.50;;;;;;;10.70;100.00;101482.92;1848153;76;87099;-77
2022/02/03 11:04:34;;;;;;;56.60;53.30;;;;;;;10.63;100.00;101487.06;1982597;71;39658;-78
2022/02/03 11:10:10;;;;;;;58.20;54.50;;;;;;;10.63;100.00;101485.67;1977196;71;39737;-69
2022/02/03 11:15:49;;;;;;;53.80;50.50;;;;;;;10.87;100.00;101472.44;1896223;74;85594;-72
2022/02/03 11:21:35;;;;;;;55.40;52.07;;;;;;;10.93;100.00;101462.19;1887605;73;86169;-76
2022/02/03 11:27:28;;;;;;;53.83;49.80;;;;;;;13.56;100.00;101457.56;1918852;72;85177;-69
2022/02/03 11:53:05;;;;;;;51.10;48.10;;;;;;;11.10;100.00;101439.16;1923607;73;86050;-78
2022/02/03 11:59:07;;;;;;;52.70;49.40;;;;;;;11.17;100.00;101430.54;1892449;74;86426;-68
2022/02/03 12:05:15;;;;;;;52.47;49.37;;;;;;;11.06;100.00;101422.75;1949364;70;85592;-74
2022/02/03 12:11:11;;;;;;;51.23;48.23;;;;;;;11.36;100.00;101409.45;1834049;76;86413;-74
2022/02/03 12:17:38;;;;;;;49.47;46.57;;;;;;;11.37;100.00;101395.83;1984431;71;39767;-78
2022/02/03 12:27:27;;;;;;;52.20;49.20;;;;;;;11.53;100.00;101403.06;1930438;71;40291;-76
2022/02/03 12:36:58;;;;;;;54.07;51.07;;;;;;;11.38;100.00;101397.50;1977801;71;39609;-78
2022/02/03 12:39:10;;;;;;;52.00;48.80;;;;;;;11.25;100.00;101390.51;1975723;71;39680;-69
2022/02/03 12:45:01;;;;;;;52.73;49.83;;;;;;;11.41;100.00;101395.55;1848362;76;86064;-78
2022/02/03 12:50:40;;;;;;;53.70;50.80;;;;;;;11.26;100.00;101384.39;1899643;73;86335;-78
2022/02/03 12:56:28;;;;;;;52.77;49.87;;;;;;;11.45;100.00;101378.58;1939185;72;85523;-68
2022/02/03 13:02:15;;;;;;;52.23;49.43;;;;;;;11.33;100.00;101374.69;1978527;71;39504;-77
2022/02/03 13:08:00;;;;;;;53.97;50.87;;;;;;;11.45;100.00;101384.14;1844754;73;86216;-74
2022/02/03 13:13:59;;;;;;;52.27;49.40;;;;;;;11.40;100.00;101370.23;1885946;74;86677;-77
2022/02/03 13:19:49;;;;;;;56.43;53.23;;;;;;;11.29;100.00;101372.19;1909413;74;86617;-75
2022/02/03 13:25:32;;;;;;;53.00;49.90;;;;;;;11.27;100.00;101372.17;1958799;72;85533;-75
2022/02/03 13:31:23;;;;;;;52.07;49.10;;;;;;;11.35;100.00;101373.84;1972666;71;39774;-77
2022/02/03 13:37:18;;;;;;;53.80;50.70;;;;;;;11.67;100.00;101361.05;1951540;71;39568;-77
2022/02/03 13:43:07;;;;;;;55.07;51.97;;;;;;;11.36;100.00;101360.22;1978894;70;39665;-77
2022/02/03 13:48:54;;;;;;;54.00;50.90;;;;;;;11.27;100.00;101354.93;1904234;74;86448;-68
2022/02/03 14:32:10;;;;;;;50.33;47.53;;;;;;;11.42;100.00;101333.25;1982503;71;39666;-77
2022/02/03 14:38:16;;;;;;;52.23;49.33;;;;;;;11.34;100.00;101330.45;1949490;72;86571;-77
2022/02/03 14:43:58;;;;;;;51.77;48.90;;;;;;;11.38;100.00;101333.53;1900214;72;103737;-66
2022/02/03 14:49:47;;;;;;;50.73;47.83;;;;;;;11.33;100.00;101332.13;1825329;77;86489;-76
2022/02/03 15:01:40;;;;;;;50.40;47.60;;;;;;;11.35;100.00;101323.78;1872476;75;85656;-73
2022/02/03 15:07:26;;;;;;;52.10;49.20;;;;;;;11.36;100.00;101321.28;1947038;72;85432;-74
2022/02/03 15:13:14;;;;;;;51.20;48.50;;;;;;;11.42;100.00;101318.75;1928247;71;39555;-68
2022/02/03 15:18:57;;;;;;;51.63;48.60;;;;;;;11.43;100.00;101308.47;1808977;77;86532;-77
2022/02/03 15:24:41;;;;;;;51.73;49.00;;;;;;;11.39;100.00;101311.53;1835292;76;86265;-68
2022/02/03 15:30:30;;;;;;;50.10;47.50;;;;;;;11.47;100.00;101308.77;1920052;71;86437;-68
2022/02/03 15:36:15;;;;;;;50.77;47.97;;;;;;;11.44;100.00;101301.80;1905559;72;86323;-78
2022/02/03 15:42:00;;;;;;;49.60;46.80;;;;;;;11.38;100.00;101315.45;1980434;71;39669;-75
2022/02/03 15:47:49;;;;;;;50.23;47.40;;;;;;;11.34;100.00;101317.92;1808616;78;85967;-76
2022/02/03 16:17:58;;;;;;;52.37;49.33;;;;;;;11.26;100.00;101279.56;1824831;76;85613;-76
2022/02/03 16:24:12;;;;;;;50.33;47.33;;;;;;;11.28;100.00;101276.51;1808443;78;85579;-67
2022/02/03 16:54:07;;;;;;;52.23;49.03;;;;;;;11.37;100.00;101277.61;1949080;71;39636;-67
2022/02/03 16:59:56;;;;;;;53.83;50.43;;;;;;;11.35;100.00;101270.93;1862923;75;86303;-75
2022/02/03 17:05:38;;;;;;;56.40;53.13;;;;;;;11.40;100.00;101267.31;1908131;74;86675;-73
2022/02/03 17:11:23;;;;;;;55.17;51.87;;;;;;;11.38;100.00;101268.97;1916292;74;85663;-76
2022/02/03 17:17:08;;;;;;;55.50;52.33;;;;;;;11.40;100.00;101268.15;1949918;71;39474;-74
2022/02/03 17:22:54;;;;;;;56.87;53.47;;;;;;;11.40;100.00;101272.32;1842909;76;85702;-74
2022/02/03 17:28:45;;;;;;;61.20;57.80;;;;;;;11.18;100.00;101284.30;1882864;73;85492;-75
2022/02/03 18:05:49;;;;;;;56.63;53.33;;;;;;;11.27;100.00;101309.05;1793854;78;86270;-75
2022/02/03 18:11:01;;;;;;;55.80;52.70;;;;;;;11.25;100.00;101295.95;1843379;76;86384;-68
2022/02/03 18:47:53;;;;;;;56.23;52.97;;;;;;;11.23;100.00;101279.28;1832985;76;85517;-74
2022/02/03 18:53:12;;;;;;;54.87;51.60;;;;;;;11.15;100.00;101257.06;1985807;70;39472;-78
2022/02/03 18:59:02;;;;;;;58.53;55.13;;;;;;;11.26;100.00;101280.11;1833519;76;86697;-75
2022/02/03 19:23:25;;;;;;;58.93;55.43;;;;;;;11.15;100.00;101274.30;1806900;78;85981;-71
2022/02/03 20:05:46;;;;;;;64.57;60.17;;;;;;;10.70;100.00;101255.64;1878731;74;86742;-73
2022/02/03 20:11:28;;;;;;;67.33;62.83;;;;;;;10.55;100.00;101252.30;1908228;74;85896;-69
2022/02/03 20:17:18;;;;;;;65.67;61.40;;;;;;;10.50;100.00;101235.62;1941551;71;39417;-73
2022/02/03 20:23:02;;;;;;;67.20;62.50;;;;;;;10.54;100.00;101236.73;1832446;76;86229;-73
2022/02/03 20:28:48;;;;;;;71.87;66.87;;;;;;;10.44;100.00;101235.32;1904196;74;85770;-72
2022/02/03 20:34:35;;;;;;;72.33;67.10;;;;;;;10.36;100.00;101221.98;1879642;74;85370;-74
2022/02/03 20:40:20;;;;;;;71.93;66.63;;;;;;;10.31;100.00;101225.58;1926410;73;86350;-71
2022/02/03 20:46:06;;;;;;;77.43;71.30;;;;;;;10.29;100.00;101233.92;1943381;71;39696;-74
2022/02/03 20:51:50;;;;;;;71.97;66.47;;;;;;;10.24;100.00;101230.57;1808569;76;85533;-75
2022/02/03 20:57:34;;;;;;;71.13;65.73;;;;;;;10.30;100.00;101236.98;1876875;75;86430;-70
2022/02/03 21:03:25;;;;;;;70.20;65.00;;;;;;;10.38;100.00;101226.72;1954695;72;86258;-69
2022/02/03 21:09:08;;;;;;;74.93;69.43;;;;;;;10.24;100.00;101229.18;1983483;71;39763;-73
2022/02/03 21:14:54;;;;;;;68.97;63.77;;;;;;;10.35;100.00;101232.28;1819125;77;86314;-69
2022/02/03 21:20:40;;;;;;;69.17;63.63;;;;;;;10.28;100.00;101213.64;1867701;74;86287;-77
2022/02/03 21:26:33;;;;;;;70.93;65.73;;;;;;;10.26;100.00;101220.59;1949862;72;86024;-74
2022/02/03 21:32:14;;;;;;;71.67;66.17;;;;;;;10.17;100.00;101221.68;1861107;74;86549;-67
2022/02/03 21:37:59;;;;;;;68.47;63.37;;;;;;;10.17;100.00;101226.39;1835453;76;86513;-72
2022/02/03 21:43:44;;;;;;;67.50;62.70;;;;;;;10.12;100.00;101216.08;1782219;78;86831;-73
2022/02/03 21:49:28;;;;;;;66.80;62.20;;;;;;;10.12;100.00;101214.69;1906783;73;85421;-71
2022/02/03 21:55:13;;;;;;;68.57;63.73;;;;;;;10.11;100.00;101216.34;1977822;71;39784;-75
2022/02/03 22:00:59;;;;;;;66.93;62.13;;;;;;;10.05;100.00;101209.95;1835178;76;85668;-71
2022/02/03 22:06:42;;;;;;;67.63;63.03;;;;;;;10.18;100.00;101202.53;1849648;75;86610;-76
2022/02/03 22:12:26;;;;;;;67.37;62.70;;;;;;;10.08;100.00;101201.08;1910640;72;86359;-70
2022/02/03 22:18:16;;;;;;;66.33;61.83;;;;;;;10.18;100.00;101204.47;1927577;71;39697;-73
2022/02/03 22:24:13;;;;;;;66.57;62.07;;;;;;;10.13;100.00;101196.94;1942121;73;85512;-74
2022/02/03 22:48:23;;;;;;;63.77;59.47;;;;;;;10.40;100.00;101182.83;1978512;71;39613;-73
2022/02/03 22:53:59;;;;;;;60.60;56.90;;;;;;;10.37;100.00;101176.45;1815621;76;85769;-70
2022/02/03 23:00:09;;;;;;;63.90;59.90;;;;;;;10.37;100.00;101176.45;1800801;78;85317;-72
2022/02/03 23:05:38;;;;;;;63.63;59.73;;;;;;;10.42;100.00;101174.52;1889144;74;86523;-68
2022/02/03 23:23:33;;;;;;;62.27;58.67;;;;;;;10.22;100.00;101157.02;1871413;75;86447;-74
2022/02/03 23:29:20;;;;;;;62.67;59.03;;;;;;;10.24;100.00;101152.00;1947696;72;86171;-70
2022/02/03 23:35:13;;;;;;;60.70;57.17;;;;;;;10.11;100.00;101144.17;1980833;71;39607;-74
2022/02/03 23:48:12;;;;;;;63.60;59.80;;;;;;;10.14;100.00;101131.95;1974333;71;40157;-73
